sensor_id;sensor_type;location;lat;lon;timestamp;P1;durP1;ratioP1;P2;durP2;ratioP2
62610;SDS011;48683;48.084;17.272;2023-09-30T00:00:43;14.93;;;10.60;;
62610;SDS011;48683;48.084;17.272;2023-09-30T00:03:09;10.93;;;9.75;;
62610;SDS011;48683;48.084;17.272;2023-09-30T00:05:36;14.30;;;10.10;;
62610;SDS011;48683;48.084;17.272;2023-09-30T00:08:01;13.37;;;10.37;;
62610;SDS011;48683;48.084;17.272;2023-09-30T00:10:27;13.93;;;11.50;;
62610;SDS011;48683;48.084;17.272;2023-09-30T00:12:52;13.77;;;10.17;;
62610;SDS011;48683;48.084;17.272;2023-09-30T00:15:18;15.07;;;11.07;;
62610;SDS011;48683;48.084;17.272;2023-09-30T00:17:43;14.03;;;9.77;;
62610;SDS011;48683;48.084;17.272;2023-09-30T00:20:09;14.20;;;10.60;;
62610;SDS011;48683;48.084;17.272;2023-09-30T00:22:34;13.02;;;10.45;;
62610;SDS011;48683;48.084;17.272;2023-09-30T00:25:00;14.52;;;10.95;;
62610;SDS011;48683;48.084;17.272;2023-09-30T00:27:25;10.65;;;9.32;;
62610;SDS011;48683;48.084;17.272;2023-09-30T00:29:51;15.35;;;11.35;;
62610;SDS011;48683;48.084;17.272;2023-09-30T00:32:16;12.25;;;10.85;;
62610;SDS011;48683;48.084;17.272;2023-09-30T00:34:42;14.40;;;9.82;;
62610;SDS011;48683;48.084;17.272;2023-09-30T00:37:08;13.68;;;11.43;;
62610;SDS011;48683;48.084;17.272;2023-09-30T00:39:33;11.68;;;9.77;;
62610;SDS011;48683;48.084;17.272;2023-09-30T00:41:58;12.15;;;9.43;;
62610;SDS011;48683;48.084;17.272;2023-09-30T00:44:25;12.50;;;10.32;;
62610;SDS011;48683;48.084;17.272;2023-09-30T00:46:51;13.43;;;10.23;;
62610;SDS011;48683;48.084;17.272;2023-09-30T00:51:43;13.63;;;10.43;;
62610;SDS011;48683;48.084;17.272;2023-09-30T00:54:10;14.90;;;11.30;;
62610;SDS011;48683;48.084;17.272;2023-09-30T00:56:35;15.07;;;12.30;;
62610;SDS011;48683;48.084;17.272;2023-09-30T00:59:08;15.90;;;11.50;;
62610;SDS011;48683;48.084;17.272;2023-09-30T01:01:34;18.33;;;11.73;;
62610;SDS011;48683;48.084;17.272;2023-09-30T01:03:59;17.13;;;11.48;;
62610;SDS011;48683;48.084;17.272;2023-09-30T01:06:25;15.67;;;12.13;;
62610;SDS011;48683;48.084;17.272;2023-09-30T01:08:51;15.13;;;11.10;;
62610;SDS011;48683;48.084;17.272;2023-09-30T01:11:17;13.00;;;10.23;;
62610;SDS011;48683;48.084;17.272;2023-09-30T01:13:43;14.25;;;11.52;;
62610;SDS011;48683;48.084;17.272;2023-09-30T01:16:10;13.55;;;12.15;;
62610;SDS011;48683;48.084;17.272;2023-09-30T01:18:36;15.65;;;11.23;;
62610;SDS011;48683;48.084;17.272;2023-09-30T01:21:03;14.90;;;12.23;;
62610;SDS011;48683;48.084;17.272;2023-09-30T01:23:30;12.25;;;10.35;;
62610;SDS011;48683;48.084;17.272;2023-09-30T01:25:56;13.80;;;12.07;;
62610;SDS011;48683;48.084;17.272;2023-09-30T01:28:21;14.57;;;11.77;;
62610;SDS011;48683;48.084;17.272;2023-09-30T01:30:48;20.00;;;12.02;;
62610;SDS011;48683;48.084;17.272;2023-09-30T01:33:13;14.75;;;13.02;;
62610;SDS011;48683;48.084;17.272;2023-09-30T01:35:39;19.58;;;12.05;;
62610;SDS011;48683;48.084;17.272;2023-09-30T01:38:04;15.40;;;11.93;;
62610;SDS011;48683;48.084;17.272;2023-09-30T01:40:29;17.52;;;12.45;;
62610;SDS011;48683;48.084;17.272;2023-09-30T01:42:55;17.87;;;13.20;;
62610;SDS011;48683;48.084;17.272;2023-09-30T01:45:21;16.15;;;13.30;;
62610;SDS011;48683;48.084;17.272;2023-09-30T01:47:47;14.77;;;12.18;;
62610;SDS011;48683;48.084;17.272;2023-09-30T01:50:12;15.93;;;12.68;;
62610;SDS011;48683;48.084;17.272;2023-09-30T01:52:37;16.42;;;10.20;;
62610;SDS011;48683;48.084;17.272;2023-09-30T01:55:03;20.02;;;13.43;;
62610;SDS011;48683;48.084;17.272;2023-09-30T01:57:29;16.17;;;12.35;;
62610;SDS011;48683;48.084;17.272;2023-09-30T01:59:54;17.73;;;13.20;;
62610;SDS011;48683;48.084;17.272;2023-09-30T02:02:20;17.95;;;13.90;;
62610;SDS011;48683;48.084;17.272;2023-09-30T02:04:45;17.15;;;13.43;;
62610;SDS011;48683;48.084;17.272;2023-09-30T02:07:10;17.05;;;13.43;;
62610;SDS011;48683;48.084;17.272;2023-09-30T02:09:36;17.00;;;13.35;;
62610;SDS011;48683;48.084;17.272;2023-09-30T02:12:01;15.40;;;13.52;;
62610;SDS011;48683;48.084;17.272;2023-09-30T02:14:27;18.35;;;11.73;;
62610;SDS011;48683;48.084;17.272;2023-09-30T02:16:52;15.32;;;12.20;;
62610;SDS011;48683;48.084;17.272;2023-09-30T02:19:18;14.48;;;12.07;;
62610;SDS011;48683;48.084;17.272;2023-09-30T02:21:44;13.88;;;10.85;;
62610;SDS011;48683;48.084;17.272;2023-09-30T02:24:10;13.27;;;11.88;;
62610;SDS011;48683;48.084;17.272;2023-09-30T02:26:35;15.23;;;10.57;;
62610;SDS011;48683;48.084;17.272;2023-09-30T02:29:00;13.52;;;11.60;;
62610;SDS011;48683;48.084;17.272;2023-09-30T02:31:26;13.68;;;12.20;;
62610;SDS011;48683;48.084;17.272;2023-09-30T02:33:51;17.55;;;13.55;;
62610;SDS011;48683;48.084;17.272;2023-09-30T02:36:16;18.20;;;12.48;;
62610;SDS011;48683;48.084;17.272;2023-09-30T02:38:42;20.45;;;13.38;;
62610;SDS011;48683;48.084;17.272;2023-09-30T02:41:08;19.23;;;14.97;;
62610;SDS011;48683;48.084;17.272;2023-09-30T02:43:34;17.10;;;13.30;;
62610;SDS011;48683;48.084;17.272;2023-09-30T02:45:59;20.58;;;14.32;;
62610;SDS011;48683;48.084;17.272;2023-09-30T02:48:24;21.90;;;13.65;;
62610;SDS011;48683;48.084;17.272;2023-09-30T02:50:50;14.07;;;11.95;;
62610;SDS011;48683;48.084;17.272;2023-09-30T02:53:15;14.50;;;12.80;;
62610;SDS011;48683;48.084;17.272;2023-09-30T02:55:41;17.90;;;12.60;;
62610;SDS011;48683;48.084;17.272;2023-09-30T02:58:10;17.33;;;13.05;;
62610;SDS011;48683;48.084;17.272;2023-09-30T03:00:35;21.05;;;14.82;;
62610;SDS011;48683;48.084;17.272;2023-09-30T03:03:02;17.92;;;14.40;;
62610;SDS011;48683;48.084;17.272;2023-09-30T03:05:28;16.92;;;12.80;;
62610;SDS011;48683;48.084;17.272;2023-09-30T03:07:57;19.48;;;14.43;;
62610;SDS011;48683;48.084;17.272;2023-09-30T03:10:22;17.52;;;14.40;;
62610;SDS011;48683;48.084;17.272;2023-09-30T03:12:55;19.60;;;14.75;;
62610;SDS011;48683;48.084;17.272;2023-09-30T03:15:21;21.05;;;15.30;;
62610;SDS011;48683;48.084;17.272;2023-09-30T03:17:47;15.60;;;13.57;;
62610;SDS011;48683;48.084;17.272;2023-09-30T03:20:13;17.77;;;13.57;;
62610;SDS011;48683;48.084;17.272;2023-09-30T03:22:40;20.50;;;14.80;;
62610;SDS011;48683;48.084;17.272;2023-09-30T03:25:07;18.58;;;14.98;;
62610;SDS011;48683;48.084;17.272;2023-09-30T03:27:34;20.98;;;14.48;;
62610;SDS011;48683;48.084;17.272;2023-09-30T03:29:59;18.58;;;14.23;;
62610;SDS011;48683;48.084;17.272;2023-09-30T03:32:26;14.20;;;12.68;;
62610;SDS011;48683;48.084;17.272;2023-09-30T03:34:52;18.23;;;14.25;;
62610;SDS011;48683;48.084;17.272;2023-09-30T03:37:18;18.13;;;13.50;;
62610;SDS011;48683;48.084;17.272;2023-09-30T03:39:43;19.45;;;14.05;;
62610;SDS011;48683;48.084;17.272;2023-09-30T03:42:09;17.85;;;13.60;;
62610;SDS011;48683;48.084;17.272;2023-09-30T03:44:36;19.88;;;13.57;;
62610;SDS011;48683;48.084;17.272;2023-09-30T03:47:03;18.30;;;11.88;;
62610;SDS011;48683;48.084;17.272;2023-09-30T03:49:28;16.17;;;12.93;;
62610;SDS011;48683;48.084;17.272;2023-09-30T03:51:54;19.10;;;12.40;;
62610;SDS011;48683;48.084;17.272;2023-09-30T03:54:19;17.70;;;12.73;;
62610;SDS011;48683;48.084;17.272;2023-09-30T03:56:45;15.82;;;12.68;;
62610;SDS011;48683;48.084;17.272;2023-09-30T03:59:11;20.92;;;15.10;;
62610;SDS011;48683;48.084;17.272;2023-09-30T04:01:37;19.08;;;14.00;;
62610;SDS011;48683;48.084;17.272;2023-09-30T04:04:05;20.17;;;15.10;;
62610;SDS011;48683;48.084;17.272;2023-09-30T04:08:57;17.93;;;13.93;;
62610;SDS011;48683;48.084;17.272;2023-09-30T04:11:24;16.23;;;12.32;;
62610;SDS011;48683;48.084;17.272;2023-09-30T04:13:49;20.67;;;14.68;;
62610;SDS011;48683;48.084;17.272;2023-09-30T04:16:15;17.55;;;14.02;;
62610;SDS011;48683;48.084;17.272;2023-09-30T04:18:43;15.85;;;12.80;;
62610;SDS011;48683;48.084;17.272;2023-09-30T04:21:09;20.52;;;13.65;;
62610;SDS011;48683;48.084;17.272;2023-09-30T04:23:34;22.73;;;15.20;;
62610;SDS011;48683;48.084;17.272;2023-09-30T04:26:03;18.67;;;14.07;;
62610;SDS011;48683;48.084;17.272;2023-09-30T04:28:29;18.55;;;15.48;;
62610;SDS011;48683;48.084;17.272;2023-09-30T04:30:55;17.73;;;14.43;;
62610;SDS011;48683;48.084;17.272;2023-09-30T04:33:21;21.55;;;14.82;;
62610;SDS011;48683;48.084;17.272;2023-09-30T04:35:49;21.52;;;15.20;;
62610;SDS011;48683;48.084;17.272;2023-09-30T04:38:15;22.20;;;13.65;;
62610;SDS011;48683;48.084;17.272;2023-09-30T04:40:40;14.73;;;13.10;;
62610;SDS011;48683;48.084;17.272;2023-09-30T04:43:05;23.42;;;14.50;;
62610;SDS011;48683;48.084;17.272;2023-09-30T04:45:31;18.98;;;14.68;;
62610;SDS011;48683;48.084;17.272;2023-09-30T04:47:58;17.17;;;13.18;;
62610;SDS011;48683;48.084;17.272;2023-09-30T04:50:23;16.95;;;13.48;;
62610;SDS011;48683;48.084;17.272;2023-09-30T04:52:49;23.23;;;15.30;;
62610;SDS011;48683;48.084;17.272;2023-09-30T04:55:16;16.17;;;13.50;;
62610;SDS011;48683;48.084;17.272;2023-09-30T04:57:42;19.27;;;15.13;;
62610;SDS011;48683;48.084;17.272;2023-09-30T05:00:14;22.92;;;13.85;;
62610;SDS011;48683;48.084;17.272;2023-09-30T05:02:41;18.13;;;13.57;;
62610;SDS011;48683;48.084;17.272;2023-09-30T05:05:08;22.63;;;13.50;;
62610;SDS011;48683;48.084;17.272;2023-09-30T05:07:33;22.30;;;14.93;;
62610;SDS011;48683;48.084;17.272;2023-09-30T05:09:59;19.30;;;14.83;;
62610;SDS011;48683;48.084;17.272;2023-09-30T05:12:24;25.02;;;15.40;;
62610;SDS011;48683;48.084;17.272;2023-09-30T05:14:50;16.65;;;12.05;;
62610;SDS011;48683;48.084;17.272;2023-09-30T05:17:16;16.20;;;14.32;;
62610;SDS011;48683;48.084;17.272;2023-09-30T05:19:41;15.80;;;13.65;;
62610;SDS011;48683;48.084;17.272;2023-09-30T05:22:06;17.83;;;13.95;;
62610;SDS011;48683;48.084;17.272;2023-09-30T05:24:32;16.07;;;14.37;;
62610;SDS011;48683;48.084;17.272;2023-09-30T05:26:57;19.23;;;15.35;;
62610;SDS011;48683;48.084;17.272;2023-09-30T05:29:23;19.55;;;13.93;;
62610;SDS011;48683;48.084;17.272;2023-09-30T05:31:48;17.40;;;14.80;;
62610;SDS011;48683;48.084;17.272;2023-09-30T05:34:14;24.83;;;15.18;;
62610;SDS011;48683;48.084;17.272;2023-09-30T05:36:39;18.43;;;14.30;;
62610;SDS011;48683;48.084;17.272;2023-09-30T05:39:04;20.50;;;13.40;;
62610;SDS011;48683;48.084;17.272;2023-09-30T05:41:33;21.30;;;15.93;;
62610;SDS011;48683;48.084;17.272;2023-09-30T05:43:58;20.52;;;13.73;;
62610;SDS011;48683;48.084;17.272;2023-09-30T05:46:24;19.67;;;14.63;;
62610;SDS011;48683;48.084;17.272;2023-09-30T05:48:50;15.75;;;12.18;;
62610;SDS011;48683;48.084;17.272;2023-09-30T05:51:15;17.10;;;13.85;;
62610;SDS011;48683;48.084;17.272;2023-09-30T05:53:41;20.63;;;16.42;;
62610;SDS011;48683;48.084;17.272;2023-09-30T05:56:07;20.77;;;15.40;;
62610;SDS011;48683;48.084;17.272;2023-09-30T05:58:33;20.27;;;14.13;;
62610;SDS011;48683;48.084;17.272;2023-09-30T06:00:58;23.15;;;16.25;;
62610;SDS011;48683;48.084;17.272;2023-09-30T06:05:50;20.17;;;13.90;;
62610;SDS011;48683;48.084;17.272;2023-09-30T06:08:16;23.47;;;13.53;;
62610;SDS011;48683;48.084;17.272;2023-09-30T06:10:41;20.03;;;14.23;;
62610;SDS011;48683;48.084;17.272;2023-09-30T06:13:11;23.95;;;14.32;;
62610;SDS011;48683;48.084;17.272;2023-09-30T06:15:40;21.60;;;15.20;;
62610;SDS011;48683;48.084;17.272;2023-09-30T06:18:07;18.00;;;14.25;;
62610;SDS011;48683;48.084;17.272;2023-09-30T06:20:32;22.90;;;14.93;;
62610;SDS011;48683;48.084;17.272;2023-09-30T06:22:58;18.83;;;15.23;;
62610;SDS011;48683;48.084;17.272;2023-09-30T06:25:25;17.67;;;14.27;;
62610;SDS011;48683;48.084;17.272;2023-09-30T06:27:52;24.13;;;14.48;;
62610;SDS011;48683;48.084;17.272;2023-09-30T06:30:19;25.55;;;15.20;;
62610;SDS011;48683;48.084;17.272;2023-09-30T06:32:45;18.67;;;14.70;;
62610;SDS011;48683;48.084;17.272;2023-09-30T06:35:11;15.52;;;13.88;;
62610;SDS011;48683;48.084;17.272;2023-09-30T06:37:37;17.98;;;13.80;;
62610;SDS011;48683;48.084;17.272;2023-09-30T06:40:07;21.90;;;14.57;;
62610;SDS011;48683;48.084;17.272;2023-09-30T06:42:34;18.33;;;12.32;;
62610;SDS011;48683;48.084;17.272;2023-09-30T06:45:00;19.90;;;13.20;;
62610;SDS011;48683;48.084;17.272;2023-09-30T06:47:30;16.15;;;11.73;;
62610;SDS011;48683;48.084;17.272;2023-09-30T06:49:58;21.50;;;11.52;;
62610;SDS011;48683;48.084;17.272;2023-09-30T06:52:24;19.48;;;11.90;;
62610;SDS011;48683;48.084;17.272;2023-09-30T06:54:50;13.88;;;10.30;;
62610;SDS011;48683;48.084;17.272;2023-09-30T06:57:17;18.08;;;11.82;;
62610;SDS011;48683;48.084;17.272;2023-09-30T06:59:42;22.80;;;13.93;;
62610;SDS011;48683;48.084;17.272;2023-09-30T07:02:07;21.75;;;14.32;;
62610;SDS011;48683;48.084;17.272;2023-09-30T07:04:33;19.95;;;12.77;;
62610;SDS011;48683;48.084;17.272;2023-09-30T07:06:58;18.40;;;13.03;;
62610;SDS011;48683;48.084;17.272;2023-09-30T07:09:24;20.90;;;12.50;;
62610;SDS011;48683;48.084;17.272;2023-09-30T07:11:49;17.65;;;12.35;;
62610;SDS011;48683;48.084;17.272;2023-09-30T07:14:14;22.07;;;12.80;;
62610;SDS011;48683;48.084;17.272;2023-09-30T07:16:40;23.43;;;14.10;;
62610;SDS011;48683;48.084;17.272;2023-09-30T07:19:05;22.07;;;13.87;;
62610;SDS011;48683;48.084;17.272;2023-09-30T07:21:31;24.73;;;13.27;;
62610;SDS011;48683;48.084;17.272;2023-09-30T07:23:56;18.63;;;11.82;;
62610;SDS011;48683;48.084;17.272;2023-09-30T07:26:25;17.97;;;12.03;;
62610;SDS011;48683;48.084;17.272;2023-09-30T07:28:51;22.45;;;12.43;;
62610;SDS011;48683;48.084;17.272;2023-09-30T07:31:16;20.17;;;13.23;;
62610;SDS011;48683;48.084;17.272;2023-09-30T07:33:42;19.55;;;12.85;;
62610;SDS011;48683;48.084;17.272;2023-09-30T07:36:07;17.97;;;12.33;;
62610;SDS011;48683;48.084;17.272;2023-09-30T07:38:32;23.97;;;12.53;;
62610;SDS011;48683;48.084;17.272;2023-09-30T07:40:59;21.33;;;12.33;;
62610;SDS011;48683;48.084;17.272;2023-09-30T07:43:25;17.83;;;12.57;;
62610;SDS011;48683;48.084;17.272;2023-09-30T07:45:51;22.47;;;13.03;;
62610;SDS011;48683;48.084;17.272;2023-09-30T07:48:17;22.20;;;13.00;;
62610;SDS011;48683;48.084;17.272;2023-09-30T07:50:42;24.33;;;12.43;;
62610;SDS011;48683;48.084;17.272;2023-09-30T07:53:07;22.23;;;12.80;;
62610;SDS011;48683;48.084;17.272;2023-09-30T07:55:33;20.60;;;11.77;;
62610;SDS011;48683;48.084;17.272;2023-09-30T07:57:58;22.37;;;12.63;;
62610;SDS011;48683;48.084;17.272;2023-09-30T08:00:25;28.58;;;13.68;;
62610;SDS011;48683;48.084;17.272;2023-09-30T08:02:50;21.17;;;12.37;;
62610;SDS011;48683;48.084;17.272;2023-09-30T08:05:16;22.77;;;12.67;;
62610;SDS011;48683;48.084;17.272;2023-09-30T08:07:42;26.67;;;14.10;;
62610;SDS011;48683;48.084;17.272;2023-09-30T08:10:07;25.20;;;12.10;;
62610;SDS011;48683;48.084;17.272;2023-09-30T08:12:38;23.17;;;12.55;;
62610;SDS011;48683;48.084;17.272;2023-09-30T08:15:03;24.47;;;11.00;;
62610;SDS011;48683;48.084;17.272;2023-09-30T08:17:31;18.63;;;9.95;;
62610;SDS011;48683;48.084;17.272;2023-09-30T08:19:57;15.68;;;9.13;;
62610;SDS011;48683;48.084;17.272;2023-09-30T08:22:22;19.57;;;10.47;;
62610;SDS011;48683;48.084;17.272;2023-09-30T08:24:52;16.92;;;9.15;;
62610;SDS011;48683;48.084;17.272;2023-09-30T08:27:18;20.57;;;10.30;;
62610;SDS011;48683;48.084;17.272;2023-09-30T08:29:43;18.60;;;10.07;;
62610;SDS011;48683;48.084;17.272;2023-09-30T08:32:08;23.53;;;10.70;;
62610;SDS011;48683;48.084;17.272;2023-09-30T08:34:35;16.95;;;9.48;;
62610;SDS011;48683;48.084;17.272;2023-09-30T08:37:00;22.20;;;9.93;;
62610;SDS011;48683;48.084;17.272;2023-09-30T08:39:26;19.87;;;10.20;;
62610;SDS011;48683;48.084;17.272;2023-09-30T08:44:19;21.25;;;10.23;;
62610;SDS011;48683;48.084;17.272;2023-09-30T08:46:45;19.43;;;9.13;;
62610;SDS011;48683;48.084;17.272;2023-09-30T08:49:12;19.80;;;9.70;;
62610;SDS011;48683;48.084;17.272;2023-09-30T08:51:40;19.55;;;10.43;;
62610;SDS011;48683;48.084;17.272;2023-09-30T08:54:05;18.07;;;9.40;;
62610;SDS011;48683;48.084;17.272;2023-09-30T08:56:32;20.08;;;10.27;;
62610;SDS011;48683;48.084;17.272;2023-09-30T08:59:00;19.02;;;10.30;;
62610;SDS011;48683;48.084;17.272;2023-09-30T09:01:27;15.30;;;8.50;;
62610;SDS011;48683;48.084;17.272;2023-09-30T09:03:54;24.13;;;10.43;;
62610;SDS011;48683;48.084;17.272;2023-09-30T09:06:20;19.73;;;10.30;;
62610;SDS011;48683;48.084;17.272;2023-09-30T09:08:50;19.23;;;9.98;;
62610;SDS011;48683;48.084;17.272;2023-09-30T09:11:16;22.42;;;11.02;;
62610;SDS011;48683;48.084;17.272;2023-09-30T09:13:49;18.90;;;10.35;;
62610;SDS011;48683;48.084;17.272;2023-09-30T09:16:18;22.60;;;11.05;;
62610;SDS011;48683;48.084;17.272;2023-09-30T09:18:44;23.87;;;10.80;;
62610;SDS011;48683;48.084;17.272;2023-09-30T09:23:49;27.08;;;11.73;;
62610;SDS011;48683;48.084;17.272;2023-09-30T09:26:28;28.73;;;12.23;;
62610;SDS011;48683;48.084;17.272;2023-09-30T09:28:58;22.63;;;11.05;;
62610;SDS011;48683;48.084;17.272;2023-09-30T09:31:35;25.90;;;11.85;;
62610;SDS011;48683;48.084;17.272;2023-09-30T09:34:01;24.10;;;11.02;;
62610;SDS011;48683;48.084;17.272;2023-09-30T09:36:41;21.50;;;10.88;;
62610;SDS011;48683;48.084;17.272;2023-09-30T09:39:08;25.58;;;10.95;;
62610;SDS011;48683;48.084;17.272;2023-09-30T09:41:51;24.33;;;12.05;;
62610;SDS011;48683;48.084;17.272;2023-09-30T09:44:16;23.50;;;11.50;;
62610;SDS011;48683;48.084;17.272;2023-09-30T09:46:44;32.17;;;12.15;;
62610;SDS011;48683;48.084;17.272;2023-09-30T09:49:11;36.85;;;13.95;;
62610;SDS011;48683;48.084;17.272;2023-09-30T09:51:37;23.35;;;11.55;;
62610;SDS011;48683;48.084;17.272;2023-09-30T09:54:03;25.83;;;11.93;;
62610;SDS011;48683;48.084;17.272;2023-09-30T09:56:33;26.33;;;12.32;;
62610;SDS011;48683;48.084;17.272;2023-09-30T09:58:59;26.60;;;12.00;;
62610;SDS011;48683;48.084;17.272;2023-09-30T10:01:29;27.90;;;12.35;;
62610;SDS011;48683;48.084;17.272;2023-09-30T10:03:56;30.00;;;13.38;;
62610;SDS011;48683;48.084;17.272;2023-09-30T10:06:21;22.03;;;10.90;;
62610;SDS011;48683;48.084;17.272;2023-09-30T10:08:48;25.60;;;13.30;;
62610;SDS011;48683;48.084;17.272;2023-09-30T10:11:17;24.10;;;12.82;;
62610;SDS011;48683;48.084;17.272;2023-09-30T10:19:09;28.17;;;13.75;;
62610;SDS011;48683;48.084;17.272;2023-09-30T10:21:36;23.13;;;12.10;;
62610;SDS011;48683;48.084;17.272;2023-09-30T10:35:19;27.55;;;13.27;;
62610;SDS011;48683;48.084;17.272;2023-09-30T10:40:47;26.08;;;13.57;;
62610;SDS011;48683;48.084;17.272;2023-09-30T10:45:55;25.73;;;13.88;;
62610;SDS011;48683;48.084;17.272;2023-09-30T10:48:32;28.20;;;14.53;;
62610;SDS011;48683;48.084;17.272;2023-09-30T10:50:58;28.45;;;14.75;;
62610;SDS011;48683;48.084;17.272;2023-09-30T10:53:25;27.17;;;13.75;;
62610;SDS011;48683;48.084;17.272;2023-09-30T10:55:55;29.05;;;14.10;;
62610;SDS011;48683;48.084;17.272;2023-09-30T10:58:33;25.27;;;13.30;;
62610;SDS011;48683;48.084;17.272;2023-09-30T11:01:04;28.23;;;14.07;;
62610;SDS011;48683;48.084;17.272;2023-09-30T11:03:29;26.73;;;13.20;;
62610;SDS011;48683;48.084;17.272;2023-09-30T11:05:55;24.13;;;12.10;;
62610;SDS011;48683;48.084;17.272;2023-09-30T11:08:21;22.37;;;12.37;;
62610;SDS011;48683;48.084;17.272;2023-09-30T11:10:50;26.13;;;12.10;;
62610;SDS011;48683;48.084;17.272;2023-09-30T11:13:16;26.77;;;12.90;;
62610;SDS011;48683;48.084;17.272;2023-09-30T11:15:43;23.63;;;12.18;;
62610;SDS011;48683;48.084;17.272;2023-09-30T11:18:12;27.75;;;12.02;;
62610;SDS011;48683;48.084;17.272;2023-09-30T11:20:42;25.90;;;12.90;;
62610;SDS011;48683;48.084;17.272;2023-09-30T11:23:08;27.27;;;11.77;;
62610;SDS011;48683;48.084;17.272;2023-09-30T11:25:34;23.50;;;12.10;;
62610;SDS011;48683;48.084;17.272;2023-09-30T11:28:12;23.00;;;11.63;;
62610;SDS011;48683;48.084;17.272;2023-09-30T11:30:57;24.38;;;11.38;;
62610;SDS011;48683;48.084;17.272;2023-09-30T11:33:22;22.88;;;12.05;;
62610;SDS011;48683;48.084;17.272;2023-09-30T11:38:30;23.13;;;12.48;;
62610;SDS011;48683;48.084;17.272;2023-09-30T11:41:03;25.92;;;12.75;;
62610;SDS011;48683;48.084;17.272;2023-09-30T11:43:31;24.27;;;12.70;;
62610;SDS011;48683;48.084;17.272;2023-09-30T11:48:34;21.23;;;11.88;;
62610;SDS011;48683;48.084;17.272;2023-09-30T11:51:00;22.70;;;11.20;;
62610;SDS011;48683;48.084;17.272;2023-09-30T11:53:29;21.10;;;11.73;;
62610;SDS011;48683;48.084;17.272;2023-09-30T11:55:56;22.92;;;12.07;;
62610;SDS011;48683;48.084;17.272;2023-09-30T11:58:30;25.80;;;12.73;;
62610;SDS011;48683;48.084;17.272;2023-09-30T12:00:58;24.70;;;11.93;;
62610;SDS011;48683;48.084;17.272;2023-09-30T12:03:27;26.95;;;13.00;;
62610;SDS011;48683;48.084;17.272;2023-09-30T12:05:55;24.57;;;12.70;;
62610;SDS011;48683;48.084;17.272;2023-09-30T12:08:21;25.85;;;12.60;;
62610;SDS011;48683;48.084;17.272;2023-09-30T12:10:48;23.48;;;12.05;;
62610;SDS011;48683;48.084;17.272;2023-09-30T12:13:14;26.45;;;13.23;;
62610;SDS011;48683;48.084;17.272;2023-09-30T12:15:40;22.63;;;13.13;;
62610;SDS011;48683;48.084;17.272;2023-09-30T12:18:05;26.70;;;13.27;;
62610;SDS011;48683;48.084;17.272;2023-09-30T12:20:31;30.40;;;14.03;;
62610;SDS011;48683;48.084;17.272;2023-09-30T12:22:56;25.23;;;13.70;;
62610;SDS011;48683;48.084;17.272;2023-09-30T12:25:21;32.20;;;14.10;;
62610;SDS011;48683;48.084;17.272;2023-09-30T12:27:48;25.63;;;13.63;;
62610;SDS011;48683;48.084;17.272;2023-09-30T12:32:39;35.07;;;15.20;;
62610;SDS011;48683;48.084;17.272;2023-09-30T12:35:05;25.67;;;13.48;;
62610;SDS011;48683;48.084;17.272;2023-09-30T12:37:31;27.70;;;14.03;;
62610;SDS011;48683;48.084;17.272;2023-09-30T12:39:57;29.50;;;14.60;;
62610;SDS011;48683;48.084;17.272;2023-09-30T12:42:23;29.67;;;14.77;;
62610;SDS011;48683;48.084;17.272;2023-09-30T12:44:48;29.20;;;14.93;;
62610;SDS011;48683;48.084;17.272;2023-09-30T12:47:13;26.13;;;13.70;;
62610;SDS011;48683;48.084;17.272;2023-09-30T12:49:39;28.83;;;14.00;;
62610;SDS011;48683;48.084;17.272;2023-09-30T12:52:04;30.83;;;14.73;;
62610;SDS011;48683;48.084;17.272;2023-09-30T12:54:30;26.97;;;13.80;;
62610;SDS011;48683;48.084;17.272;2023-09-30T12:56:55;32.80;;;14.73;;
62610;SDS011;48683;48.084;17.272;2023-09-30T12:59:20;28.20;;;14.03;;
62610;SDS011;48683;48.084;17.272;2023-09-30T13:01:50;29.27;;;14.80;;
62610;SDS011;48683;48.084;17.272;2023-09-30T13:04:15;29.40;;;14.27;;
62610;SDS011;48683;48.084;17.272;2023-09-30T13:06:41;29.80;;;15.20;;
62610;SDS011;48683;48.084;17.272;2023-09-30T13:09:06;32.97;;;15.00;;
62610;SDS011;48683;48.084;17.272;2023-09-30T13:11:33;30.63;;;15.02;;
62610;SDS011;48683;48.084;17.272;2023-09-30T13:13:59;30.67;;;15.00;;
62610;SDS011;48683;48.084;17.272;2023-09-30T13:16:24;34.33;;;15.93;;
62610;SDS011;48683;48.084;17.272;2023-09-30T13:18:50;30.73;;;15.67;;
62610;SDS011;48683;48.084;17.272;2023-09-30T13:21:17;29.83;;;15.65;;
62610;SDS011;48683;48.084;17.272;2023-09-30T13:23:43;35.22;;;15.88;;
62610;SDS011;48683;48.084;17.272;2023-09-30T13:28:35;27.53;;;14.80;;
62610;SDS011;48683;48.084;17.272;2023-09-30T13:31:00;32.27;;;16.77;;
62610;SDS011;48683;48.084;17.272;2023-09-30T13:33:25;29.10;;;15.67;;
62610;SDS011;48683;48.084;17.272;2023-09-30T13:35:51;35.83;;;16.83;;
62610;SDS011;48683;48.084;17.272;2023-09-30T13:38:16;33.17;;;16.17;;
62610;SDS011;48683;48.084;17.272;2023-09-30T13:40:42;34.43;;;16.33;;
62610;SDS011;48683;48.084;17.272;2023-09-30T13:43:07;33.17;;;16.47;;
62610;SDS011;48683;48.084;17.272;2023-09-30T13:45:33;34.30;;;16.80;;
62610;SDS011;48683;48.084;17.272;2023-09-30T13:47:59;31.05;;;15.55;;
62610;SDS011;48683;48.084;17.272;2023-09-30T13:50:25;32.97;;;15.53;;
62610;SDS011;48683;48.084;17.272;2023-09-30T13:52:50;24.07;;;12.87;;
62610;SDS011;48683;48.084;17.272;2023-09-30T13:55:15;28.37;;;13.83;;
62610;SDS011;48683;48.084;17.272;2023-09-30T13:57:45;26.33;;;12.85;;
62610;SDS011;48683;48.084;17.272;2023-09-30T14:00:11;26.52;;;12.75;;
62610;SDS011;48683;48.084;17.272;2023-09-30T14:02:37;23.67;;;12.80;;
62610;SDS011;48683;48.084;17.272;2023-09-30T14:05:03;24.47;;;12.37;;
62610;SDS011;48683;48.084;17.272;2023-09-30T14:07:29;22.50;;;11.13;;
62610;SDS011;48683;48.084;17.272;2023-09-30T14:09:55;22.33;;;12.17;;
62610;SDS011;48683;48.084;17.272;2023-09-30T14:12:20;24.63;;;11.77;;
62610;SDS011;48683;48.084;17.272;2023-09-30T14:14:45;23.10;;;11.17;;
62610;SDS011;48683;48.084;17.272;2023-09-30T14:17:10;19.90;;;11.20;;
62610;SDS011;48683;48.084;17.272;2023-09-30T14:19:36;19.83;;;11.13;;
62610;SDS011;48683;48.084;17.272;2023-09-30T14:22:03;19.52;;;10.63;;
62610;SDS011;48683;48.084;17.272;2023-09-30T14:24:30;19.52;;;10.98;;
62610;SDS011;48683;48.084;17.272;2023-09-30T14:26:55;21.85;;;11.10;;
62610;SDS011;48683;48.084;17.272;2023-09-30T14:29:21;21.77;;;10.63;;
62610;SDS011;48683;48.084;17.272;2023-09-30T14:31:46;22.13;;;10.73;;
62610;SDS011;48683;48.084;17.272;2023-09-30T14:34:12;19.63;;;9.23;;
62610;SDS011;48683;48.084;17.272;2023-09-30T14:36:38;19.05;;;9.55;;
62610;SDS011;48683;48.084;17.272;2023-09-30T14:39:03;18.63;;;8.97;;
62610;SDS011;48683;48.084;17.272;2023-09-30T14:43:55;16.10;;;8.60;;
62610;SDS011;48683;48.084;17.272;2023-09-30T14:46:20;15.67;;;8.70;;
62610;SDS011;48683;48.084;17.272;2023-09-30T14:48:47;19.92;;;9.48;;
62610;SDS011;48683;48.084;17.272;2023-09-30T14:51:12;19.17;;;9.03;;